Time;durP1;ratioP1;P1;durP2;ratioP2;P2;SDS_P1;SDS_P2;PMS_P1;PMS_P2;Temp;Humidity;BMP_temperature;BMP_pressure;BME280_temperature;BME280_humidity;BME280_pressure;Samples;Min_cycle;Max_cycle;Signal;HPM_P1;HPM_P2
2021/01/22 00:00:24;;;;;;;58.40;33.20;;;-6.00;91.70;;;;;;5013990;28;20491;-84
2021/01/22 00:02:50;;;;;;;65.43;33.25;;;-5.90;91.60;;;;;;5019539;28;20088;-85
2021/01/22 00:05:16;;;;;;;62.60;31.00;;;-5.90;91.40;;;;;;5014189;28;20033;-83
2021/01/22 00:07:52;;;;;;;56.80;29.85;;;-5.80;91.30;;;;;;5016456;28;20469;-83
2021/01/22 00:10:18;;;;;;;57.13;32.58;;;-5.80;91.30;;;;;;5017319;28;20028;-83
2021/01/22 00:12:44;;;;;;;58.08;33.17;;;-5.80;91.30;;;;;;4995705;28;20535;-83
2021/01/22 00:15:10;;;;;;;62.63;32.03;;;-5.70;91.20;;;;;;5009923;28;20045;-82
2021/01/22 00:17:36;;;;;;;60.72;31.73;;;-5.70;91.10;;;;;;5010876;28;20018;-81
2021/01/22 00:20:02;;;;;;;67.85;31.52;;;-5.70;91.10;;;;;;5014467;28;20049;-82
2021/01/22 00:22:28;;;;;;;68.50;32.83;;;-5.60;91.00;;;;;;5014326;28;20075;-81
2021/01/22 00:24:57;;;;;;;63.88;36.17;;;-5.70;90.90;;;;;;5015363;28;20534;-83
2021/01/22 00:27:22;;;;;;;68.47;34.92;;;-5.60;90.80;;;;;;5015233;28;20018;-81
2021/01/22 00:29:48;;;;;;;69.40;35.03;;;-5.60;90.70;;;;;;5015376;28;20032;-81
2021/01/22 00:32:14;;;;;;;57.65;35.25;;;-5.60;90.50;;;;;;5015288;28;20434;-80
2021/01/22 00:34:40;;;;;;;58.50;31.08;;;-5.50;90.30;;;;;;4997409;28;20069;-82
2021/01/22 00:37:06;;;;;;;62.25;35.05;;;-5.40;90.20;;;;;;5015299;28;20022;-80
2021/01/22 00:39:31;;;;;;;67.28;34.40;;;-5.40;90.30;;;;;;5014559;28;20034;-81
2021/01/22 00:41:57;;;;;;;72.05;36.03;;;-5.40;90.30;;;;;;4996897;28;20037;-82
2021/01/22 00:44:23;;;;;;;62.10;33.45;;;-5.40;90.20;;;;;;5006291;28;20463;-83
2021/01/22 00:46:49;;;;;;;62.92;32.92;;;-5.40;90.20;;;;;;5014736;28;20026;-81
2021/01/22 00:49:15;;;;;;;57.70;33.33;;;-5.40;90.20;;;;;;5014865;28;20029;-83
2021/01/22 00:51:41;;;;;;;61.63;33.13;;;-5.40;90.30;;;;;;5015517;28;20026;-82
2021/01/22 00:54:07;;;;;;;65.00;34.33;;;-5.40;90.30;;;;;;4998858;28;20033;-83
2021/01/22 00:56:32;;;;;;;56.00;32.40;;;-5.40;90.40;;;;;;4999653;28;20026;-84
2021/01/22 00:58:58;;;;;;;64.40;34.05;;;-5.30;90.40;;;;;;5016692;28;20100;-84
2021/01/22 01:01:37;;;;;;;66.97;32.97;;;-5.30;90.40;;;;;;5018387;28;20503;-85
2021/01/22 01:04:03;;;;;;;64.43;34.78;;;-5.30;90.30;;;;;;4988031;28;20052;-81
2021/01/22 01:06:28;;;;;;;61.00;33.38;;;-5.30;90.30;;;;;;4998385;28;20113;-84
2021/01/22 01:08:54;;;;;;;57.72;36.17;;;-5.30;90.20;;;;;;5015024;28;20430;-82
2021/01/22 01:11:20;;;;;;;73.75;36.15;;;-5.30;90.20;;;;;;4997371;28;20105;-83
2021/01/22 01:13:46;;;;;;;64.82;33.30;;;-5.30;90.20;;;;;;5013882;28;20030;-83
2021/01/22 01:16:12;;;;;;;66.93;34.35;;;-5.30;90.30;;;;;;5012954;28;20021;-82
2021/01/22 01:18:37;;;;;;;60.08;35.08;;;-5.40;90.50;;;;;;5009877;28;20434;-82
2021/01/22 01:21:04;;;;;;;54.45;31.70;;;-5.40;90.60;;;;;;5016466;28;20086;-82
2021/01/22 01:23:29;;;;;;;62.55;34.20;;;-5.40;90.50;;;;;;5002117;28;20113;-83
2021/01/22 01:26:13;;;;;;;66.93;34.38;;;-5.40;90.60;;;;;;5018390;28;20061;-85
2021/01/22 01:28:39;;;;;;;64.57;32.75;;;-5.40;90.70;;;;;;5018856;28;20453;-84
2021/01/22 01:31:13;;;;;;;62.17;32.70;;;-5.40;90.70;;;;;;5015976;28;20046;-83
2021/01/22 01:36:26;;;;;;;70.75;35.08;;;-5.50;90.70;;;;;;5014724;28;20141;-81
2021/01/22 01:39:01;;;;;;;69.68;33.38;;;-5.40;90.70;;;;;;5014209;28;20033;-83
2021/01/22 01:41:27;;;;;;;59.85;35.90;;;-5.40;90.60;;;;;;4996390;28;20475;-82
2021/01/22 01:43:52;;;;;;;69.68;38.17;;;-5.40;90.70;;;;;;5018231;28;20025;-81
2021/01/22 01:46:18;;;;;;;73.35;38.05;;;-5.50;91.00;;;;;;5016877;28;20021;-83
2021/01/22 01:48:45;;;;;;;69.85;37.38;;;-5.50;91.10;;;;;;5007378;28;20018;-81
2021/01/22 01:51:11;;;;;;;74.38;38.05;;;-5.50;91.40;;;;;;5009658;28;20458;-83
2021/01/22 01:53:37;;;;;;;72.30;38.58;;;-5.60;91.50;;;;;;5013104;28;20116;-80
2021/01/22 01:56:03;;;;;;;64.53;37.58;;;-5.60;91.50;;;;;;4994878;28;20056;-81
2021/01/22 01:58:31;;;;;;;75.38;39.63;;;-5.50;91.50;;;;;;5012618;28;20030;-82
2021/01/22 02:00:58;;;;;;;78.97;39.55;;;-5.50;91.40;;;;;;5012599;28;20045;-80
2021/01/22 02:03:23;;;;;;;69.25;38.92;;;-5.50;91.20;;;;;;5012560;28;20069;-79
2021/01/22 02:05:50;;;;;;;72.22;38.20;;;-5.50;91.10;;;;;;4994927;28;20026;-81
2021/01/22 02:08:17;;;;;;;76.72;38.80;;;-5.40;91.00;;;;;;5013227;28;20029;-82
2021/01/22 02:10:44;;;;;;;52.70;33.25;;;-5.40;90.80;;;;;;5008908;28;20064;-81
2021/01/22 02:13:11;;;;;;;68.30;35.72;;;-5.40;90.60;;;;;;5012728;28;20372;-84
2021/01/22 02:15:38;;;;;;;65.95;36.28;;;-5.30;90.50;;;;;;4994954;28;20040;-81
2021/01/22 02:18:06;;;;;;;72.60;38.05;;;-5.30;90.40;;;;;;5012001;28;20079;-81
2021/01/22 02:20:56;;;;;;;68.18;37.03;;;-5.20;90.40;;;;;;4994849;28;20510;-82
2021/01/22 02:23:25;;;;;;;81.50;37.53;;;-5.20;90.30;;;;;;4985049;28;20217;-80
2021/01/22 02:26:01;;;;;;;72.07;37.25;;;-5.20;90.40;;;;;;5012969;28;20026;-80
2021/01/22 02:28:28;;;;;;;71.25;39.00;;;-5.20;90.50;;;;;;4995795;28;20033;-81
2021/01/22 02:30:54;;;;;;;67.68;37.17;;;-5.20;90.50;;;;;;5012984;28;20140;-81
2021/01/22 02:33:21;;;;;;;79.43;41.80;;;-5.20;90.50;;;;;;5012346;28;20471;-81
2021/01/22 02:35:53;;;;;;;80.40;40.17;;;-5.20;90.60;;;;;;5008013;28;20030;-81
2021/01/22 02:38:23;;;;;;;69.88;39.90;;;-5.20;90.40;;;;;;4995004;28;20025;-82
2021/01/22 02:40:49;;;;;;;72.10;36.35;;;-5.20;90.30;;;;;;5013669;28;20184;-81
2021/01/22 02:43:16;;;;;;;80.63;37.38;;;-5.20;90.40;;;;;;5015316;28;20108;-80
2021/01/22 02:45:44;;;;;;;80.45;41.28;;;-5.10;90.40;;;;;;5015836;28;20415;-80
2021/01/22 02:48:13;;;;;;;76.18;39.05;;;-5.10;90.40;;;;;;4997959;28;20491;-79
2021/01/22 02:50:39;;;;;;;75.13;39.05;;;-5.10;90.40;;;;;;4998252;28;20024;-80
2021/01/22 02:53:06;;;;;;;85.03;43.22;;;-5.10;90.50;;;;;;5015742;28;20112;-79
2021/01/22 02:55:33;;;;;;;75.67;37.30;;;-5.10;90.30;;;;;;5016076;28;20022;-81
2021/01/22 02:58:20;;;;;;;71.85;39.90;;;-5.10;90.20;;;;;;5015255;28;20022;-81
2021/01/22 03:00:50;;;;;;;70.00;39.30;;;-5.10;90.20;;;;;;5007200;28;20033;-81
2021/01/22 03:03:30;;;;;;;82.43;40.30;;;-5.10;90.40;;;;;;5024878;28;20068;-78
2021/01/22 03:05:58;;;;;;;80.45;42.58;;;-5.10;90.00;;;;;;5010360;28;20022;-82
2021/01/22 03:08:28;;;;;;;85.50;41.95;;;-5.10;89.80;;;;;;5016299;28;20052;-79
2021/01/22 03:10:56;;;;;;;85.18;44.63;;;-5.10;89.80;;;;;;5007297;28;20117;-78
2021/01/22 03:13:25;;;;;;;82.15;39.50;;;-5.00;89.90;;;;;;5015301;28;20013;-81
2021/01/22 03:15:51;;;;;;;90.53;44.22;;;-5.00;90.00;;;;;;5014988;28;20049;-83
2021/01/22 03:18:19;;;;;;;84.40;46.88;;;-5.00;90.10;;;;;;5015922;28;20065;-83
2021/01/22 03:20:47;;;;;;;88.07;39.75;;;-5.00;90.00;;;;;;5019249;28;20390;-83
2021/01/22 03:23:17;;;;;;;92.72;47.53;;;-5.00;90.00;;;;;;5019016;28;20072;-83
2021/01/22 03:25:43;;;;;;;97.40;51.55;;;-5.10;90.20;;;;;;5018645;28;20080;-82
2021/01/22 03:28:10;;;;;;;103.22;47.60;;;-5.10;90.30;;;;;;5025676;28;20086;-82
2021/01/22 03:30:36;;;;;;;91.60;45.03;;;-5.10;90.40;;;;;;4999602;28;20026;-82
2021/01/22 03:33:03;;;;;;;105.50;47.13;;;-5.10;90.50;;;;;;5014556;28;20033;-83
2021/01/22 03:35:29;;;;;;;108.47;49.53;;;-5.20;90.50;;;;;;5016349;28;20030;-83
2021/01/22 03:37:57;;;;;;;85.90;41.58;;;-5.10;90.50;;;;;;5014711;28;20021;-80
2021/01/22 03:40:24;;;;;;;105.65;46.63;;;-5.10;90.50;;;;;;5014904;28;20049;-80
2021/01/22 03:42:50;;;;;;;109.43;51.55;;;-5.10;90.50;;;;;;4998136;28;20030;-81
2021/01/22 03:45:17;;;;;;;94.88;45.35;;;-5.10;90.50;;;;;;5017827;28;20034;-79
2021/01/22 03:47:43;;;;;;;110.88;52.35;;;-5.10;90.60;;;;;;5017968;28;20483;-80
2021/01/22 03:50:10;;;;;;;108.70;50.55;;;-5.10;90.60;;;;;;5015943;28;20080;-81
2021/01/22 03:52:37;;;;;;;111.60;45.92;;;-5.10;90.60;;;;;;5010448;28;20085;-80
2021/01/22 03:55:03;;;;;;;112.15;53.05;;;-5.00;90.70;;;;;;5010900;28;20030;-80
2021/01/22 03:57:29;;;;;;;126.78;55.70;;;-5.10;90.80;;;;;;5010296;28;20124;-80
2021/01/22 03:59:55;;;;;;;117.38;55.50;;;-5.10;90.90;;;;;;5013649;28;20057;-80
2021/01/22 04:02:21;;;;;;;120.38;50.35;;;-5.10;90.90;;;;;;5014342;28;20046;-80
2021/01/22 04:04:47;;;;;;;112.53;54.38;;;-5.00;90.90;;;;;;5014139;28;20485;-80
2021/01/22 04:07:13;;;;;;;122.45;54.20;;;-5.00;90.90;;;;;;5014025;28;20021;-80
2021/01/22 04:09:39;;;;;;;117.88;55.00;;;-5.00;90.90;;;;;;5013990;28;20236;-81
2021/01/22 04:12:06;;;;;;;120.93;54.47;;;-5.00;90.90;;;;;;5014152;28;20022;-81
2021/01/22 04:14:37;;;;;;;115.97;53.90;;;-4.90;90.90;;;;;;5013668;28;20034;-81
2021/01/22 04:17:03;;;;;;;104.40;53.30;;;-4.90;90.90;;;;;;5013457;28;20022;-81
2021/01/22 04:19:28;;;;;;;116.60;54.08;;;-4.90;90.90;;;;;;5013244;28;20040;-81
2021/01/22 04:21:55;;;;;;;126.10;55.40;;;-4.90;90.90;;;;;;4993157;28;20113;-81
2021/01/22 04:24:21;;;;;;;124.18;55.72;;;-4.90;90.90;;;;;;5013569;28;20505;-81
2021/01/22 04:26:47;;;;;;;127.75;54.83;;;-4.80;91.00;;;;;;5015353;28;20045;-81
2021/01/22 04:29:14;;;;;;;132.75;55.83;;;-4.90;90.90;;;;;;5013014;28;20084;-82
2021/01/22 04:31:40;;;;;;;139.77;54.45;;;-4.80;90.90;;;;;;5012874;28;20021;-81
2021/01/22 04:34:09;;;;;;;130.25;55.47;;;-4.80;90.90;;;;;;5013971;28;20418;-80
2021/01/22 04:36:35;;;;;;;113.80;55.67;;;-4.80;90.90;;;;;;5014300;28;20414;-81
2021/01/22 04:39:02;;;;;;;122.95;57.63;;;-4.80;91.00;;;;;;5015016;28;20033;-82
2021/01/22 04:41:28;;;;;;;112.97;56.53;;;-4.80;90.90;;;;;;5019035;28;20121;-83
2021/01/22 04:43:54;;;;;;;129.35;56.38;;;-4.70;90.90;;;;;;5014959;28;20095;-82
2021/01/22 04:46:21;;;;;;;133.65;53.92;;;-4.70;90.90;;;;;;5013363;28;20022;-81
2021/01/22 04:48:49;;;;;;;138.60;57.80;;;-4.70;90.90;;;;;;4992956;28;20025;-83
2021/01/22 04:51:16;;;;;;;119.10;53.25;;;-4.70;90.90;;;;;;5009900;28;20022;-82
2021/01/22 04:53:46;;;;;;;151.65;58.03;;;-4.70;90.90;;;;;;4997030;28;20022;-83
2021/01/22 04:56:14;;;;;;;137.75;61.67;;;-4.70;91.00;;;;;;5014583;28;20034;-81
2021/01/22 04:58:45;;;;;;;136.88;54.33;;;-4.60;91.00;;;;;;4996617;28;20026;-80
2021/01/22 05:01:12;;;;;;;129.23;55.22;;;-4.60;91.00;;;;;;5020311;28;20034;-80
2021/01/22 05:03:39;;;;;;;142.88;59.33;;;-4.60;91.00;;;;;;5012983;28;20117;-80
2021/01/22 05:06:05;;;;;;;134.02;56.88;;;-4.60;91.00;;;;;;5014196;28;20029;-82
2021/01/22 05:08:30;;;;;;;136.98;59.33;;;-4.60;91.00;;;;;;5014756;28;20032;-81
2021/01/22 05:10:56;;;;;;;140.13;64.68;;;-4.60;91.00;;;;;;5013752;28;20026;-80
2021/01/22 05:13:22;;;;;;;131.65;55.83;;;-4.60;91.00;;;;;;5013903;28;20072;-81
2021/01/22 05:16:14;;;;;;;145.23;56.53;;;-4.60;90.90;;;;;;4995590;28;20025;-81
2021/01/22 05:18:41;;;;;;;154.93;66.10;;;-4.60;91.20;;;;;;5007773;28;20053;-83
2021/01/22 05:21:12;;;;;;;141.23;54.05;;;-4.60;91.30;;;;;;4985651;28;20045;-83
2021/01/22 05:23:40;;;;;;;139.02;57.67;;;-4.60;91.30;;;;;;5006962;28;20061;-82
2021/01/22 05:26:10;;;;;;;158.48;67.78;;;-4.60;91.40;;;;;;5013868;28;20030;-81
2021/01/22 05:28:43;;;;;;;144.88;61.83;;;-4.60;91.40;;;;;;5014761;28;20101;-80
2021/01/22 05:31:11;;;;;;;144.35;58.75;;;-4.60;91.40;;;;;;5012984;28;20026;-81
2021/01/22 05:33:37;;;;;;;144.52;59.72;;;-4.60;91.30;;;;;;5013156;28;20415;-83
2021/01/22 05:36:22;;;;;;;133.85;60.55;;;-4.60;91.30;;;;;;4992908;28;20034;-84
2021/01/22 05:38:49;;;;;;;146.23;59.13;;;-4.60;91.30;;;;;;5002313;28;20444;-81
2021/01/22 05:41:15;;;;;;;153.95;57.75;;;-4.60;91.40;;;;;;5012179;28;20077;-82
2021/01/22 05:43:41;;;;;;;154.32;64.35;;;-4.60;91.40;;;;;;5012640;28;20094;-82
2021/01/22 05:46:21;;;;;;;125.68;56.03;;;-4.60;91.40;;;;;;4995053;28;20033;-82
2021/01/22 05:48:47;;;;;;;140.55;56.08;;;-4.60;91.30;;;;;;4994291;28;20398;-82
2021/01/22 05:51:14;;;;;;;132.25;56.05;;;-4.60;91.30;;;;;;5015361;28;20022;-82
2021/01/22 05:53:47;;;;;;;154.20;61.30;;;-4.60;91.20;;;;;;5012388;28;20192;-82
2021/01/22 05:56:14;;;;;;;160.85;61.97;;;-4.60;91.20;;;;;;5013022;28;20104;-81
2021/01/22 05:58:42;;;;;;;98.40;42.25;;;-4.60;91.20;;;;;;5001780;28;20025;-81
2021/01/22 06:01:16;;;;;;;135.18;56.75;;;-4.60;91.20;;;;;;4987293;28;20045;-82
2021/01/22 06:03:50;;;;;;;153.80;64.60;;;-4.60;91.40;;;;;;5000498;28;20080;-82
2021/01/22 06:06:17;;;;;;;147.70;60.47;;;-4.60;91.40;;;;;;5013001;28;20105;-83
2021/01/22 06:08:48;;;;;;;179.23;68.70;;;-4.60;91.50;;;;;;5012376;28;20029;-81
2021/01/22 06:11:16;;;;;;;140.70;58.58;;;-4.60;91.60;;;;;;5012546;28;20105;-80
2021/01/22 06:13:48;;;;;;;149.15;60.03;;;-4.60;91.60;;;;;;5012821;28;20013;-79
2021/01/22 06:16:19;;;;;;;137.43;56.88;;;-4.60;91.70;;;;;;5018445;28;20030;-80
2021/01/22 06:18:52;;;;;;;174.40;58.88;;;-4.60;91.90;;;;;;5011253;28;20514;-80
2021/01/22 06:21:39;;;;;;;155.32;65.57;;;-4.60;92.00;;;;;;4999920;28;20099;-81
2021/01/22 06:24:06;;;;;;;;;;;-4.60;92.20;;;;;;5017863;28;20045;-82
2021/01/22 06:26:37;;;;;;;155.32;61.72;;;-4.60;92.20;;;;;;5002882;28;19909;-81
2021/01/22 06:29:05;;;;;;;163.23;64.45;;;-4.60;92.40;;;;;;4997790;28;20057;-79
2021/01/22 06:31:31;;;;;;;163.40;59.80;;;-4.60;92.50;;;;;;5016040;28;20061;-79
2021/01/22 06:33:58;;;;;;;152.85;61.03;;;-4.50;92.60;;;;;;5016036;28;20053;-79
2021/01/22 06:36:27;;;;;;;165.25;60.35;;;-4.50;92.60;;;;;;5015693;28;20061;-79
2021/01/22 06:38:56;;;;;;;180.52;63.33;;;-4.40;92.60;;;;;;5014554;28;20029;-80
2021/01/22 06:41:26;;;;;;;157.25;62.35;;;-4.30;92.60;;;;;;5015792;28;20038;-79
2021/01/22 06:43:56;;;;;;;170.25;68.72;;;-4.30;92.60;;;;;;5014752;28;20109;-80
2021/01/22 06:46:26;;;;;;;186.98;65.30;;;-4.20;92.50;;;;;;4998729;28;20052;-80
2021/01/22 06:49:05;;;;;;;177.20;70.53;;;-4.20;92.50;;;;;;5016413;28;20022;-79
2021/01/22 06:51:36;;;;;;;187.90;73.03;;;-4.20;92.50;;;;;;5015969;28;20033;-82
2021/01/22 06:54:10;;;;;;;176.73;70.22;;;-4.10;92.40;;;;;;5015856;28;20053;-80
2021/01/22 06:56:51;;;;;;;176.00;70.63;;;-4.10;92.30;;;;;;4998087;28;20080;-79
2021/01/22 06:59:23;;;;;;;176.30;71.75;;;-4.00;92.30;;;;;;5017772;28;20380;-81
2021/01/22 07:01:50;;;;;;;178.35;71.13;;;-4.00;92.30;;;;;;5016426;28;20034;-80
2021/01/22 07:04:34;;;;;;;175.48;77.13;;;-4.00;92.30;;;;;;5015274;28;20022;-80
2021/01/22 07:07:04;;;;;;;177.27;67.07;;;-3.90;92.20;;;;;;5015098;28;20080;-80
2021/01/22 07:09:45;;;;;;;161.82;70.03;;;-3.90;92.20;;;;;;5015044;28;20431;-80
2021/01/22 07:12:14;;;;;;;179.27;64.10;;;-3.90;92.20;;;;;;5015009;28;20383;-80
2021/01/22 07:14:43;;;;;;;151.05;66.20;;;-3.80;92.30;;;;;;4997990;28;20022;-81
2021/01/22 07:17:21;;;;;;;174.95;70.95;;;-3.80;92.30;;;;;;5014888;28;20080;-80
2021/01/22 07:19:57;;;;;;;178.80;71.38;;;-3.80;92.20;;;;;;5015022;28;20065;-83
2021/01/22 07:22:22;;;;;;;155.75;64.68;;;-3.70;92.40;;;;;;5014971;28;20029;-80
2021/01/22 07:24:53;;;;;;;177.75;64.13;;;-3.70;92.10;;;;;;4998460;28;20479;-81
2021/01/22 07:27:19;;;;;;;170.80;66.63;;;-3.70;92.10;;;;;;5016234;28;20088;-80
2021/01/22 07:30:17;;;;;;;182.23;70.45;;;-3.70;92.10;;;;;;5015302;28;20064;-80
2021/01/22 07:32:44;;;;;;;189.20;70.15;;;-3.60;92.10;;;;;;4997120;28;20468;-80
2021/01/22 07:35:24;;;;;;;174.15;74.95;;;-3.60;92.10;;;;;;4997477;28;20586;-80
2021/01/22 07:37:51;;;;;;;187.88;72.85;;;-3.60;92.10;;;;;;5015588;28;20084;-81
2021/01/22 07:40:17;;;;;;;181.85;67.25;;;-3.50;92.10;;;;;;5016453;28;20396;-80
2021/01/22 07:42:44;;;;;;;174.07;74.13;;;-3.50;92.00;;;;;;5014935;28;20080;-81
2021/01/22 07:45:15;;;;;;;190.37;70.83;;;-3.50;92.20;;;;;;5014029;28;20022;-81
2021/01/22 07:47:45;;;;;;;181.75;76.20;;;-3.40;92.00;;;;;;5015356;28;20387;-79
2021/01/22 07:50:17;;;;;;;169.43;67.03;;;-3.40;92.10;;;;;;4998028;28;20022;-79
2021/01/22 07:52:48;;;;;;;196.43;67.57;;;-3.30;92.10;;;;;;5013573;28;20049;-80
2021/01/22 07:55:18;;;;;;;182.70;67.97;;;-3.30;92.10;;;;;;5014839;28;20014;-79
2021/01/22 07:57:45;;;;;;;167.48;69.78;;;-3.30;92.10;;;;;;5014801;28;20033;-79
2021/01/22 08:00:16;;;;;;;180.35;72.47;;;-3.30;92.20;;;;;;4996941;28;20145;-80
2021/01/22 08:03:00;;;;;;;182.25;70.03;;;-3.30;92.10;;;;;;5013876;28;20459;-80
2021/01/22 08:05:32;;;;;;;154.48;62.50;;;-3.20;92.10;;;;;;5014156;28;20100;-79
2021/01/22 08:07:59;;;;;;;177.27;71.57;;;-3.20;92.10;;;;;;5012697;28;20030;-80
2021/01/22 08:10:29;;;;;;;195.15;78.93;;;-3.20;92.00;;;;;;5014585;28;20414;-82
2021/01/22 08:13:04;;;;;;;170.73;73.53;;;-3.20;92.00;;;;;;5013144;28;20044;-81
2021/01/22 08:15:30;;;;;;;192.40;74.45;;;-3.10;92.00;;;;;;5014237;28;20076;-80
2021/01/22 08:17:57;;;;;;;181.07;68.97;;;-3.10;92.00;;;;;;5014249;28;20049;-80
2021/01/22 08:20:23;;;;;;;;;;;-3.10;92.00;;;;;;5014595;28;20076;-80
2021/01/22 08:22:56;;;;;;;195.40;73.43;;;-3.00;92.00;;;;;;4997323;28;19909;-81
2021/01/22 08:25:36;;;;;;;167.65;66.85;;;-3.00;91.90;;;;;;5014426;28;20026;-80
2021/01/22 08:28:07;;;;;;;191.43;76.50;;;-3.00;91.90;;;;;;5003063;28;20455;-81
2021/01/22 08:30:33;;;;;;;175.70;67.72;;;-2.90;91.90;;;;;;5013776;28;20019;-79
2021/01/22 08:33:00;;;;;;;182.50;72.05;;;-2.90;91.90;;;;;;5013914;28;20026;-80
2021/01/22 08:35:27;;;;;;;171.60;73.07;;;-2.80;91.90;;;;;;5014094;28;20459;-80
2021/01/22 08:37:55;;;;;;;174.25;66.50;;;-2.70;91.90;;;;;;5015394;28;20116;-81
2021/01/22 08:40:21;;;;;;;186.65;70.82;;;-2.80;91.90;;;;;;5013912;28;20438;-80
2021/01/22 08:43:02;;;;;;;179.70;70.20;;;-2.80;92.00;;;;;;5014009;28;20383;-81
2021/01/22 08:45:28;;;;;;;183.30;74.00;;;-2.70;92.00;;;;;;4999646;28;20486;-80
2021/01/22 08:47:55;;;;;;;183.77;70.63;;;-2.70;91.90;;;;;;5014270;28;20029;-81
2021/01/22 08:50:21;;;;;;;181.02;73.65;;;-2.60;91.90;;;;;;5013812;28;20037;-80
2021/01/22 08:53:09;;;;;;;187.32;73.45;;;-2.60;92.00;;;;;;5014158;28;20361;-81
2021/01/22 08:55:36;;;;;;;190.35;69.65;;;-2.60;92.10;;;;;;5014110;28;20018;-80
2021/01/22 08:58:10;;;;;;;197.57;77.25;;;-2.60;92.00;;;;;;5017152;28;20486;-79
2021/01/22 09:00:36;;;;;;;184.02;75.72;;;-2.50;91.90;;;;;;5019541;28;20041;-79
2021/01/22 09:03:02;;;;;;;167.80;70.43;;;-2.50;91.80;;;;;;5014199;28;20152;-80
2021/01/22 09:05:28;;;;;;;176.02;72.03;;;-2.50;92.00;;;;;;5013680;28;20033;-79
2021/01/22 09:08:08;;;;;;;174.88;74.72;;;-2.40;91.70;;;;;;5012359;28;20014;-80
2021/01/22 09:10:40;;;;;;;168.80;68.38;;;-2.30;91.60;;;;;;5013193;28;20029;-81
2021/01/22 09:13:25;;;;;;;184.43;70.05;;;-2.30;91.70;;;;;;5013698;28;20029;-80
2021/01/22 09:16:11;;;;;;;184.35;73.72;;;-2.30;91.90;;;;;;5013587;28;20104;-80
2021/01/22 09:18:38;;;;;;;164.48;73.22;;;-2.20;91.60;;;;;;4995912;28;20022;-81
2021/01/22 09:21:05;;;;;;;179.60;75.35;;;-2.20;91.60;;;;;;4996464;28;20448;-80
2021/01/22 09:23:31;;;;;;;;;;;-2.20;91.60;;;;;;5018684;28;20026;-80
2021/01/22 09:26:00;;;;;;;165.70;65.97;;;-2.20;91.70;;;;;;5028213;28;20000;-78
2021/01/22 09:28:26;;;;;;;185.95;74.18;;;-2.20;91.80;;;;;;5018334;28;20022;-81
2021/01/22 09:30:52;;;;;;;177.73;69.97;;;-2.20;91.80;;;;;;5013960;28;20018;-79
2021/01/22 09:33:18;;;;;;;157.80;68.65;;;-2.10;91.80;;;;;;5012798;28;20150;-80
2021/01/22 09:35:44;;;;;;;165.95;70.20;;;-2.10;91.80;;;;;;5011531;28;20141;-79
2021/01/22 09:38:10;;;;;;;188.10;73.93;;;-2.10;91.80;;;;;;4995116;28;20499;-79
2021/01/22 09:40:36;;;;;;;185.65;74.00;;;-2.00;91.70;;;;;;5013563;28;20034;-80
2021/01/22 09:43:02;;;;;;;183.07;71.38;;;-2.00;91.60;;;;;;5013520;28;20467;-80
2021/01/22 09:45:28;;;;;;;188.07;70.83;;;-1.90;91.60;;;;;;5013190;28;20029;-79
2021/01/22 09:47:54;;;;;;;176.25;74.43;;;-1.90;91.50;;;;;;5012047;28;20034;-80
2021/01/22 09:50:20;;;;;;;162.73;71.45;;;-1.90;91.40;;;;;;5018619;28;20020;-81
2021/01/22 09:52:46;;;;;;;177.23;70.85;;;-1.80;91.40;;;;;;5002130;28;20037;-81
2021/01/22 09:55:17;;;;;;;168.13;66.63;;;-1.80;91.30;;;;;;5019833;28;20052;-80
2021/01/22 09:57:43;;;;;;;167.98;70.35;;;-1.70;91.30;;;;;;5019386;28;20360;-80
2021/01/22 10:00:11;;;;;;;191.10;75.38;;;-1.70;91.40;;;;;;5019165;28;20460;-81
2021/01/22 10:02:37;;;;;;;172.30;72.18;;;-1.60;91.40;;;;;;5019526;28;20038;-81
2021/01/22 10:05:04;;;;;;;174.80;73.82;;;-1.60;91.30;;;;;;5019426;28;20417;-79
2021/01/22 10:07:30;;;;;;;156.52;67.97;;;-1.60;91.30;;;;;;5017784;28;20029;-80
2021/01/22 10:09:56;;;;;;;174.70;75.28;;;-1.50;91.40;;;;;;5019161;28;20033;-80
2021/01/22 10:12:22;;;;;;;167.95;69.72;;;-1.50;91.40;;;;;;5019695;28;20026;-81
2021/01/22 10:14:48;;;;;;;164.13;63.35;;;-1.40;91.40;;;;;;5019422;28;20022;-79
2021/01/22 10:17:14;;;;;;;163.13;68.75;;;-1.40;91.40;;;;;;5017854;28;20029;-79
2021/01/22 10:19:40;;;;;;;168.73;70.18;;;-1.40;91.40;;;;;;5018496;28;20034;-83
2021/01/22 10:22:06;;;;;;;175.48;74.93;;;-1.30;91.30;;;;;;5018745;28;20037;-80
2021/01/22 10:24:31;;;;;;;174.55;70.93;;;-1.30;91.30;;;;;;5017867;28;20176;-80
2021/01/22 10:26:57;;;;;;;161.93;72.65;;;-1.20;91.30;;;;;;5019997;28;20102;-81
2021/01/22 10:29:24;;;;;;;183.45;73.95;;;-1.20;91.30;;;;;;5019623;28;20018;-79
2021/01/22 10:31:50;;;;;;;158.90;70.40;;;-1.10;91.30;;;;;;5019909;28;20041;-78
2021/01/22 10:34:16;;;;;;;165.07;69.55;;;-1.10;91.30;;;;;;5019669;28;20479;-79
2021/01/22 10:36:42;;;;;;;172.63;70.22;;;-1.00;91.20;;;;;;5018895;28;20026;-79
2021/01/22 10:39:09;;;;;;;173.07;71.47;;;-1.00;91.10;;;;;;5018406;28;20059;-80
2021/01/22 10:41:36;;;;;;;169.68;70.53;;;-0.90;91.00;;;;;;5019054;28;20041;-79
2021/01/22 10:44:03;;;;;;;159.18;67.55;;;-0.90;91.00;;;;;;5019303;28;20356;-80
2021/01/22 10:46:28;;;;;;;161.13;71.88;;;-0.90;91.10;;;;;;5019591;28;20028;-80
2021/01/22 10:48:55;;;;;;;167.80;66.68;;;-0.80;91.00;;;;;;5019005;28;20022;-80
2021/01/22 10:51:21;;;;;;;162.65;70.72;;;-0.80;91.20;;;;;;5002084;28;20462;-80
2021/01/22 10:53:46;;;;;;;158.48;67.13;;;-0.80;91.50;;;;;;5002258;28;20018;-81
2021/01/22 10:56:12;;;;;;;167.00;67.18;;;-0.80;91.60;;;;;;5001140;28;20109;-80
2021/01/22 10:58:38;;;;;;;173.63;67.47;;;-0.80;91.70;;;;;;5018895;28;20610;-79
2021/01/22 11:01:04;;;;;;;155.63;70.28;;;-0.80;91.60;;;;;;5018574;28;20475;-79
2021/01/22 11:03:31;;;;;;;161.38;71.10;;;-0.80;91.50;;;;;;5020183;28;20061;-81
2021/01/22 11:05:57;;;;;;;152.77;65.30;;;-0.70;91.50;;;;;;5017203;28;20102;-80
2021/01/22 11:08:25;;;;;;;152.82;63.92;;;-0.70;91.50;;;;;;5016097;28;20102;-80
2021/01/22 11:10:51;;;;;;;164.90;66.85;;;-0.60;91.60;;;;;;5016302;28;20112;-80
2021/01/22 11:13:18;;;;;;;147.95;66.13;;;-0.60;91.60;;;;;;5015553;28;20018;-81
2021/01/22 11:15:44;;;;;;;166.45;70.28;;;-0.60;91.50;;;;;;5015237;28;20029;-80
2021/01/22 11:18:10;;;;;;;153.32;67.88;;;-0.60;91.30;;;;;;5015842;28;20105;-80
2021/01/22 11:20:37;;;;;;;146.50;63.47;;;-0.50;91.30;;;;;;5015775;28;20034;-79
2021/01/22 11:23:03;;;;;;;148.70;64.72;;;-0.50;91.30;;;;;;5016460;28;20028;-78
2021/01/22 11:25:29;;;;;;;144.52;63.63;;;-0.40;91.40;;;;;;5016524;28;20550;-79
2021/01/22 11:27:55;;;;;;;136.07;58.97;;;-0.40;91.30;;;;;;5016119;28;20053;-81
2021/01/22 11:30:21;;;;;;;139.80;61.75;;;-0.30;91.50;;;;;;5010310;28;20106;-81
2021/01/22 11:32:47;;;;;;;140.50;67.80;;;-0.30;91.50;;;;;;5015443;28;20075;-83
2021/01/22 11:35:13;;;;;;;145.88;63.20;;;-0.30;91.50;;;;;;5016136;28;20033;-81
2021/01/22 11:37:40;;;;;;;137.63;56.85;;;-0.30;91.50;;;;;;4997935;28;20093;-82
2021/01/22 11:40:07;;;;;;;132.77;57.28;;;-0.30;91.50;;;;;;5015629;28;20169;-80
2021/01/22 11:42:34;;;;;;;154.88;65.28;;;-0.30;91.70;;;;;;5015568;28;20033;-81
2021/01/22 11:45:00;;;;;;;116.07;53.70;;;-0.30;91.70;;;;;;5015171;28;20045;-80
2021/01/22 11:47:26;;;;;;;135.73;58.47;;;-0.30;91.90;;;;;;5015184;28;20026;-79
2021/01/22 11:49:52;;;;;;;130.98;56.80;;;-0.30;92.10;;;;;;5015519;28;20036;-80
2021/01/22 11:52:17;;;;;;;125.15;52.70;;;-0.20;92.20;;;;;;5015647;28;20108;-80
2021/01/22 11:54:43;;;;;;;127.45;58.15;;;-0.20;92.30;;;;;;5015311;28;20455;-80
2021/01/22 11:57:09;;;;;;;124.70;56.55;;;-0.20;92.40;;;;;;5018299;28;20044;-80
2021/01/22 11:59:35;;;;;;;104.85;50.38;;;-0.10;92.60;;;;;;5015229;28;20022;-80
2021/01/22 12:02:01;;;;;;;119.30;49.55;;;-0.10;92.80;;;;;;5015043;28;20014;-81
2021/01/22 12:04:28;;;;;;;107.93;47.47;;;-0.10;93.00;;;;;;5014580;28;20125;-80
2021/01/22 12:06:54;;;;;;;85.28;42.40;;;0.00;93.20;;;;;;5014840;28;20471;-80
2021/01/22 12:09:20;;;;;;;91.80;41.20;;;0.00;93.50;;;;;;5014526;28;20033;-80
2021/01/22 12:11:52;;;;;;;92.30;40.17;;;0.00;93.60;;;;;;5014003;28;20022;-80
2021/01/22 12:14:18;;;;;;;74.30;34.38;;;0.00;93.90;;;;;;5000735;28;20515;-80
2021/01/22 12:16:45;;;;;;;85.32;37.95;;;0.00;94.00;;;;;;5012858;28;20114;-80
2021/01/22 12:19:11;;;;;;;75.07;36.50;;;0.00;94.20;;;;;;5014529;28;20076;-82
2021/01/22 12:21:37;;;;;;;71.05;36.58;;;0.00;94.40;;;;;;5015152;28;20038;-81
2021/01/22 12:24:03;;;;;;;68.60;35.65;;;-0.10;94.50;;;;;;5014288;28;20148;-80
2021/01/22 12:26:29;;;;;;;83.60;40.47;;;-0.10;94.70;;;;;;4997088;28;20550;-81
2021/01/22 12:28:55;;;;;;;74.72;36.00;;;-0.10;94.80;;;;;;4997596;28;20104;-80